createdAt,value
2024-02-28T00:00:42.013Z,6.42
2024-02-28T00:03:08.621Z,6.22
2024-02-28T00:05:35.198Z,6.17
2024-02-28T00:08:01.777Z,6.27
2024-02-28T00:10:28.302Z,6.17
2024-02-28T00:12:54.893Z,5.97
2024-02-28T00:15:21.577Z,5.97
2024-02-28T00:17:53.646Z,6.06
2024-02-28T00:20:20.230Z,6.11
2024-02-28T00:22:46.783Z,6.08
2024-02-28T00:25:14.933Z,5.91
2024-02-28T00:27:41.780Z,5.95
2024-02-28T00:30:08.732Z,6.07
2024-02-28T00:32:35.352Z,6.22
2024-02-28T00:35:02.108Z,6.39
2024-02-28T00:37:28.731Z,6.02
2024-02-28T00:39:55.357Z,6.18
2024-02-28T00:42:22.916Z,6.03
2024-02-28T00:44:49.538Z,6.07
2024-02-28T00:47:16.071Z,6.05
2024-02-28T00:49:42.666Z,5.86
2024-02-28T00:52:09.239Z,5.90
2024-02-28T00:54:35.810Z,5.76
2024-02-28T00:57:02.501Z,5.75
2024-02-28T00:59:29.036Z,5.73
2024-02-28T01:01:55.619Z,5.65
2024-02-28T01:04:22.142Z,5.65
2024-02-28T01:06:49.215Z,5.65
2024-02-28T01:09:15.880Z,5.83
2024-02-28T01:11:42.470Z,5.68
2024-02-28T01:14:09.126Z,5.64
2024-02-28T01:16:35.697Z,5.76
2024-02-28T01:19:02.237Z,5.43
2024-02-28T01:21:28.788Z,5.48
2024-02-28T01:23:55.337Z,5.50
2024-02-28T01:26:23.127Z,5.74
2024-02-28T01:28:50.031Z,5.76
2024-02-28T01:31:16.609Z,5.97
2024-02-28T01:33:43.255Z,5.60
2024-02-28T01:36:10.136Z,5.78
2024-02-28T01:38:36.795Z,5.50
2024-02-28T01:41:03.525Z,5.47
2024-02-28T01:43:30.142Z,5.29
2024-02-28T01:45:58.092Z,5.54
2024-02-28T01:48:24.765Z,5.35
2024-02-28T01:50:51.497Z,5.42
2024-02-28T01:53:21.629Z,5.21
2024-02-28T01:55:48.936Z,5.19
2024-02-28T01:58:15.541Z,5.08
2024-02-28T02:00:43.302Z,5.01
2024-02-28T02:03:09.860Z,4.87
2024-02-28T02:05:36.407Z,4.87
2024-02-28T02:08:03.536Z,5.09
2024-02-28T02:10:30.094Z,5.02
2024-02-28T02:12:56.777Z,5.00
2024-02-28T02:15:23.445Z,4.96
2024-02-28T02:17:50.139Z,4.82
2024-02-28T02:20:17.979Z,4.78
2024-02-28T02:22:44.555Z,4.86
2024-02-28T02:25:11.176Z,4.83
2024-02-28T02:27:37.813Z,4.86
2024-02-28T02:30:04.954Z,4.81
2024-02-28T02:32:31.513Z,4.81
2024-02-28T02:34:58.144Z,4.80
2024-02-28T02:37:25.222Z,4.65
2024-02-28T02:39:52.473Z,4.79
2024-02-28T02:42:19.062Z,4.74
2024-02-28T02:44:45.724Z,4.68
2024-02-28T02:47:12.353Z,4.84
2024-02-28T02:49:38.985Z,4.85
2024-02-28T02:52:05.983Z,4.81
2024-02-28T02:54:32.560Z,4.77
2024-02-28T02:56:59.143Z,4.54
2024-02-28T02:59:25.646Z,4.61
2024-02-28T03:01:52.430Z,4.72
2024-02-28T03:04:19.098Z,4.96
2024-02-28T03:06:45.761Z,4.80
2024-02-28T03:09:12.313Z,4.62
2024-02-28T03:11:39.254Z,4.53
2024-02-28T03:14:05.744Z,4.50
2024-02-28T03:16:32.322Z,4.37
2024-02-28T03:18:58.943Z,4.61
2024-02-28T03:21:25.497Z,4.34
2024-02-28T03:23:52.153Z,4.41
2024-02-28T03:26:18.682Z,4.43
2024-02-28T03:28:45.222Z,4.39
2024-02-28T03:31:11.758Z,4.46
2024-02-28T03:33:38.441Z,4.26
2024-02-28T03:36:05.253Z,4.27
2024-02-28T03:38:31.780Z,4.29
2024-02-28T03:40:58.354Z,4.05
2024-02-28T03:43:24.902Z,4.25
2024-02-28T03:45:51.612Z,4.31
2024-02-28T03:48:18.484Z,4.08
2024-02-28T03:50:45.226Z,3.85
2024-02-28T03:53:11.733Z,4.06
2024-02-28T03:55:39.090Z,4.02
2024-02-28T03:58:08.134Z,3.99
2024-02-28T04:00:34.839Z,4.05
2024-02-28T04:03:01.629Z,4.12
2024-02-28T04:05:28.239Z,4.15
2024-02-28T04:07:55.060Z,4.09
2024-02-28T04:10:21.932Z,4.17
2024-02-28T04:12:48.583Z,4.51
2024-02-28T04:15:16.230Z,4.44
2024-02-28T04:17:43.638Z,4.17
2024-02-28T04:20:10.944Z,4.29
2024-02-28T04:22:37.771Z,4.47
2024-02-28T04:25:06.295Z,4.33
2024-02-28T04:27:32.889Z,4.14
2024-02-28T04:29:59.457Z,4.18
2024-02-28T04:32:26.208Z,4.13
2024-02-28T04:34:52.839Z,4.08
2024-02-28T04:37:19.428Z,4.03
2024-02-28T04:39:46.034Z,3.96
2024-02-28T04:42:13.780Z,4.02
2024-02-28T04:44:40.444Z,4.14
2024-02-28T04:47:07.068Z,4.01
2024-02-28T04:49:33.644Z,4.00
2024-02-28T04:52:00.221Z,4.04
2024-02-28T04:54:26.820Z,3.92
2024-02-28T04:56:53.523Z,4.05
2024-02-28T04:59:20.098Z,4.02
2024-02-28T05:01:47.096Z,4.18
2024-02-28T05:04:13.907Z,4.13
2024-02-28T05:06:41.053Z,4.20
2024-02-28T05:09:08.014Z,4.12
2024-02-28T05:11:34.596Z,4.04
2024-02-28T05:14:01.440Z,4.12
2024-02-28T05:16:27.936Z,4.20
2024-02-28T05:18:54.605Z,4.09
2024-02-28T05:21:21.223Z,4.14
2024-02-28T05:23:47.834Z,3.96
2024-02-28T05:26:14.314Z,3.89
2024-02-28T05:28:41.508Z,3.98
2024-02-28T05:31:25.512Z,4.02
2024-02-28T05:33:53.523Z,4.09
2024-02-28T05:36:20.271Z,4.30
2024-02-28T05:38:46.883Z,4.01
2024-02-28T05:41:13.473Z,4.21
2024-02-28T05:43:41.592Z,4.48
2024-02-28T05:46:08.302Z,4.14
2024-02-28T05:48:34.915Z,4.18
2024-02-28T05:51:02.663Z,4.00
2024-02-28T05:53:32.558Z,4.24
2024-02-28T05:56:01.729Z,4.10
2024-02-28T05:58:28.345Z,3.95
2024-02-28T06:00:54.917Z,4.09
2024-02-28T06:03:21.558Z,4.06
2024-02-28T06:05:48.248Z,3.96
2024-02-28T06:08:16.968Z,4.04
2024-02-28T06:10:43.641Z,3.92
2024-02-28T06:13:10.441Z,4.02
2024-02-28T06:15:37.164Z,3.91
2024-02-28T06:18:03.911Z,3.92
2024-02-28T06:20:30.518Z,4.05
2024-02-28T06:22:57.082Z,3.96
2024-02-28T06:25:24.912Z,4.29
2024-02-28T06:27:51.754Z,4.35
2024-02-28T06:30:18.826Z,4.57
2024-02-28T06:32:45.570Z,4.52
2024-02-28T06:35:12.218Z,4.21
2024-02-28T06:37:38.721Z,4.15
2024-02-28T06:40:05.912Z,4.13
2024-02-28T06:42:32.489Z,4.14
2024-02-28T06:44:59.248Z,4.05
2024-02-28T06:47:25.821Z,4.15
2024-02-28T06:49:53.185Z,4.07
2024-02-28T06:52:19.783Z,4.22
2024-02-28T06:54:46.432Z,4.38
2024-02-28T06:57:14.178Z,4.34
2024-02-28T06:59:40.915Z,4.18
2024-02-28T07:02:07.592Z,4.24
2024-02-28T07:04:34.152Z,4.10
2024-02-28T07:07:00.957Z,3.95
2024-02-28T07:09:31.015Z,4.09
2024-02-28T07:11:57.838Z,4.03
2024-02-28T07:14:24.478Z,4.05
2024-02-28T07:16:52.986Z,4.14
2024-02-28T07:19:19.851Z,3.67
2024-02-28T07:21:48.657Z,3.93
2024-02-28T07:24:15.274Z,4.01
2024-02-28T07:26:45.086Z,4.01
2024-02-28T07:29:11.735Z,3.94
2024-02-28T07:31:38.330Z,4.25
2024-02-28T07:34:05.845Z,4.40
2024-02-28T07:53:23.479Z,4.20
2024-02-28T07:59:23.369Z,4.09
2024-02-28T08:02:12.746Z,4.06
2024-02-28T08:04:45.454Z,4.06
2024-02-28T08:07:12.189Z,3.89
2024-02-28T08:09:38.954Z,4.09
2024-02-28T08:12:05.958Z,4.31
2024-02-28T08:14:32.702Z,4.37
2024-02-28T08:16:59.524Z,4.37
2024-02-28T08:19:29.024Z,4.40
2024-02-28T08:21:55.864Z,4.67
2024-02-28T08:24:22.745Z,4.32
2024-02-28T08:26:49.630Z,4.50
2024-02-28T08:29:16.510Z,4.39
2024-02-28T08:31:48.183Z,4.61
2024-02-28T08:34:15.126Z,4.64
2024-02-28T08:36:42.058Z,4.78
2024-02-28T08:39:10.430Z,4.78
2024-02-28T08:41:37.005Z,4.92
2024-02-28T08:44:03.877Z,4.90
2024-02-28T08:46:30.487Z,4.92
2024-02-28T08:48:57.258Z,5.08
2024-02-28T08:51:24.036Z,5.25
2024-02-28T08:53:50.929Z,4.71
2024-02-28T08:56:17.513Z,4.92
2024-02-28T08:58:45.653Z,4.71
2024-02-28T09:01:16.615Z,4.66
2024-02-28T09:03:44.936Z,4.91
2024-02-28T09:06:13.475Z,5.17
2024-02-28T09:08:40.164Z,5.05
2024-02-28T09:11:07.333Z,5.26
2024-02-28T09:13:34.279Z,4.99
2024-02-28T09:16:00.940Z,5.26
2024-02-28T09:18:27.609Z,5.07
2024-02-28T09:20:54.634Z,5.26
2024-02-28T09:23:22.043Z,5.48
2024-02-28T09:25:48.648Z,5.50
2024-02-28T09:28:17.046Z,5.38
2024-02-28T09:30:48.592Z,5.64
2024-02-28T09:33:20.728Z,5.35
2024-02-28T09:35:47.578Z,5.56
2024-02-28T09:38:14.127Z,5.74
2024-02-28T09:40:41.113Z,6.22
2024-02-28T09:43:16.453Z,5.78
2024-02-28T09:45:48.784Z,6.24
2024-02-28T09:48:17.953Z,6.34
2024-02-28T09:50:46.804Z,5.97
2024-02-28T09:53:13.418Z,6.51
2024-02-28T09:55:39.958Z,6.12
2024-02-28T09:58:08.999Z,6.79
2024-02-28T10:00:36.110Z,6.25
2024-02-28T10:03:06.127Z,6.56
2024-02-28T10:05:34.910Z,6.54
2024-02-28T10:08:01.716Z,7.05
2024-02-28T10:10:29.560Z,7.39
2024-02-28T10:12:59.093Z,7.32
2024-02-28T10:15:29.032Z,6.99
2024-02-28T10:17:55.775Z,7.35
2024-02-28T10:20:22.461Z,7.33
2024-02-28T10:22:49.145Z,7.58
2024-02-28T10:25:18.736Z,7.00
2024-02-28T10:27:45.369Z,7.17
2024-02-28T10:30:12.394Z,7.44
2024-02-28T10:32:49.605Z,7.17
2024-02-28T10:35:22.180Z,7.75
2024-02-28T10:37:51.255Z,7.91
2024-02-28T10:40:18.185Z,6.96
2024-02-28T10:42:44.926Z,7.23
2024-02-28T10:45:21.018Z,7.19
2024-02-28T10:47:54.480Z,7.06
2024-02-28T10:50:21.382Z,7.48
2024-02-28T10:52:51.847Z,7.38
2024-02-28T10:55:26.125Z,7.56
2024-02-28T10:58:12.158Z,7.96
2024-02-28T11:00:47.975Z,7.77
2024-02-28T11:03:18.115Z,8.25
2024-02-28T11:05:48.031Z,8.18
2024-02-28T11:08:23.282Z,8.13
2024-02-28T11:10:57.576Z,8.22
2024-02-28T11:13:25.536Z,8.08
2024-02-28T11:15:52.970Z,7.72
2024-02-28T11:18:20.220Z,8.06
2024-02-28T11:20:48.890Z,7.99
2024-02-28T11:23:15.838Z,7.95
2024-02-28T11:25:43.328Z,7.68
2024-02-28T11:28:10.748Z,7.75
2024-02-28T11:30:37.410Z,8.01
2024-02-28T11:33:06.920Z,7.75
2024-02-28T11:35:34.002Z,7.68
2024-02-28T11:38:00.970Z,7.94
2024-02-28T11:40:28.190Z,8.09
2024-02-28T11:42:59.087Z,8.03
2024-02-28T11:45:26.674Z,8.29
2024-02-28T11:47:53.526Z,7.98
2024-02-28T11:50:20.146Z,8.16
2024-02-28T11:52:47.146Z,8.11
2024-02-28T11:55:13.882Z,8.01
2024-02-28T11:57:41.268Z,7.97
2024-02-28T12:00:08.955Z,8.19
2024-02-28T12:02:37.338Z,8.15
2024-02-28T12:05:07.516Z,7.94
2024-02-28T12:07:34.256Z,8.27
2024-02-28T12:10:01.684Z,8.20
2024-02-28T12:12:28.811Z,8.20
2024-02-28T12:15:02.148Z,8.15
2024-02-28T12:17:29.852Z,8.19
2024-02-28T12:19:56.878Z,8.39
2024-02-28T12:22:23.573Z,8.57
2024-02-28T12:24:50.276Z,8.62
2024-02-28T12:27:19.171Z,8.40
2024-02-28T12:29:45.806Z,8.59
2024-02-28T12:32:13.401Z,8.44
2024-02-28T12:34:40.061Z,8.85
2024-02-28T12:37:06.833Z,8.57
2024-02-28T12:39:36.565Z,8.05
2024-02-28T12:42:03.386Z,8.63
2024-02-28T12:44:30.070Z,9.18
2024-02-28T12:46:59.425Z,9.15
2024-02-28T12:49:26.032Z,9.08
2024-02-28T12:51:53.125Z,8.64
2024-02-28T12:54:22.756Z,8.74
2024-02-28T12:56:49.631Z,9.02
2024-02-28T12:59:16.677Z,8.74
2024-02-28T13:01:44.967Z,8.64
2024-02-28T13:04:11.700Z,8.79
2024-02-28T13:06:39.208Z,9.10
2024-02-28T13:09:07.199Z,9.02
2024-02-28T13:11:35.914Z,9.32
2024-02-28T13:14:02.431Z,9.23
2024-02-28T13:41:20.350Z,9.81
2024-02-28T13:44:04.722Z,9.53
2024-02-28T13:50:58.047Z,9.92
2024-02-28T14:02:33.597Z,10.37
2024-02-28T14:58:37.766Z,11.27
2024-02-28T15:01:06.053Z,11.24
2024-02-28T15:15:08.268Z,11.22
2024-02-28T15:17:59.705Z,11.16
2024-02-28T15:38:42.091Z,11.52
2024-02-28T15:41:53.226Z,11.31
2024-02-28T15:44:55.275Z,11.16
2024-02-28T16:23:35.007Z,10.21
2024-02-28T16:27:09.408Z,10.15
2024-02-28T16:29:42.061Z,9.94
2024-02-28T16:39:59.874Z,9.66
2024-02-28T16:42:40.819Z,9.64
2024-02-28T17:16:19.249Z,8.80
2024-02-28T17:19:12.831Z,8.86
2024-02-28T17:21:50.629Z,8.97
2024-02-28T17:24:26.543Z,8.89
2024-02-28T17:26:53.138Z,8.65
2024-02-28T17:29:19.685Z,8.57
2024-02-28T17:31:46.324Z,8.46
2024-02-28T17:34:15.166Z,8.53
2024-02-28T17:36:42.846Z,8.60
2024-02-28T17:39:11.329Z,8.59
2024-02-28T17:41:37.917Z,8.38
2024-02-28T17:44:04.483Z,8.49
2024-02-28T17:46:31.100Z,8.45
2024-02-28T17:48:57.662Z,8.43
2024-02-28T17:51:24.313Z,8.40
2024-02-28T17:53:51.173Z,8.50
2024-02-28T17:56:17.779Z,8.34
2024-02-28T17:58:44.304Z,8.34
2024-02-28T18:01:10.889Z,8.21
2024-02-28T18:03:37.800Z,8.35
2024-02-28T18:06:05.991Z,8.23
2024-02-28T18:08:33.545Z,8.08
2024-02-28T18:11:00.379Z,8.12
2024-02-28T18:13:26.954Z,8.16
2024-02-28T18:15:53.912Z,8.01
2024-02-28T18:18:20.754Z,8.16
2024-02-28T18:20:47.431Z,8.22
2024-02-28T18:23:20.459Z,8.29
2024-02-28T18:25:54.257Z,8.34
2024-02-28T18:28:20.825Z,7.71
2024-02-28T18:30:48.696Z,7.66
2024-02-28T18:33:15.384Z,7.45
2024-02-28T18:35:42.448Z,7.36
2024-02-28T18:38:09.390Z,7.48
2024-02-28T18:40:36.058Z,7.50
2024-02-28T18:43:03.836Z,7.46
2024-02-28T18:45:30.464Z,7.38
2024-02-28T18:47:57.771Z,7.42
2024-02-28T18:50:25.480Z,7.40
2024-02-28T18:52:54.670Z,7.66
2024-02-28T18:55:25.835Z,7.83
2024-02-28T18:57:53.342Z,7.94
2024-02-28T19:00:20.982Z,7.75
2024-02-28T19:02:49.392Z,7.55
2024-02-28T19:05:16.028Z,7.88
2024-02-28T19:07:43.292Z,7.97
2024-02-28T19:10:10.548Z,7.76
2024-02-28T19:12:37.200Z,7.94
2024-02-28T19:15:04.454Z,7.68
2024-02-28T19:17:31.083Z,7.58
2024-02-28T19:19:57.740Z,7.51
2024-02-28T19:22:24.297Z,7.83
2024-02-28T19:24:51.733Z,7.62
2024-02-28T19:27:18.882Z,7.65
2024-02-28T19:29:46.735Z,7.84
2024-02-28T19:32:13.925Z,7.83
2024-02-28T19:34:40.475Z,7.99
2024-02-28T19:37:07.056Z,7.98
2024-02-28T19:39:33.835Z,7.53
2024-02-28T19:42:00.561Z,7.28
2024-02-28T19:44:27.259Z,7.22
2024-02-28T19:46:53.846Z,7.30
2024-02-28T19:49:20.449Z,7.14
2024-02-28T19:51:47.249Z,7.15
2024-02-28T19:54:14.019Z,7.23
2024-02-28T19:56:40.711Z,7.35
2024-02-28T19:59:07.453Z,7.03
2024-02-28T20:01:34.774Z,7.29
2024-02-28T20:04:01.551Z,7.18
2024-02-28T20:06:28.237Z,7.04
2024-02-28T20:08:54.972Z,6.73
2024-02-28T20:11:22.052Z,6.60
2024-02-28T20:13:52.089Z,6.55
2024-02-28T20:16:19.024Z,6.45
2024-02-28T20:18:45.749Z,6.44
2024-02-28T20:21:17.518Z,6.26
2024-02-28T20:23:48.595Z,6.13
2024-02-28T20:26:16.858Z,6.18
2024-02-28T20:28:43.432Z,6.13
2024-02-28T20:31:10.055Z,6.11
2024-02-28T20:33:36.683Z,6.19
2024-02-28T20:36:03.441Z,6.28
2024-02-28T20:38:31.036Z,5.98
2024-02-28T20:40:57.655Z,5.90
2024-02-28T20:43:24.248Z,5.97
2024-02-28T20:45:51.078Z,6.18
2024-02-28T20:48:17.830Z,6.28
2024-02-28T20:50:45.784Z,6.17
2024-02-28T20:53:13.829Z,6.27
2024-02-28T20:55:40.665Z,6.30
2024-02-28T20:58:07.291Z,6.44
2024-02-28T21:00:34.128Z,6.58
2024-02-28T21:03:00.767Z,6.61
2024-02-28T21:05:27.297Z,6.55
2024-02-28T21:07:54.313Z,6.60
2024-02-28T21:10:22.339Z,6.59
2024-02-28T21:12:49.349Z,6.18
2024-02-28T21:15:16.502Z,6.12
2024-02-28T21:17:43.216Z,6.15
2024-02-28T21:20:09.954Z,6.40
2024-02-28T21:22:38.168Z,6.25
2024-02-28T21:25:05.572Z,5.99
2024-02-28T21:27:32.303Z,5.75
2024-02-28T21:30:00.635Z,5.65
2024-02-28T21:32:27.515Z,5.62
2024-02-28T21:34:54.161Z,5.57
2024-02-28T21:37:20.758Z,5.50
2024-02-28T21:39:47.438Z,5.43
2024-02-28T21:42:14.125Z,5.47
2024-02-28T21:44:40.765Z,5.33
2024-02-28T21:47:08.944Z,5.47
2024-02-28T21:49:35.675Z,5.42
2024-02-28T21:52:02.387Z,5.35
2024-02-28T21:54:28.976Z,5.50
2024-02-28T21:56:55.608Z,5.24
2024-02-28T21:59:22.157Z,5.20
2024-02-28T22:01:49.081Z,5.18
2024-02-28T22:04:15.913Z,5.16
2024-02-28T22:06:42.839Z,5.10
2024-02-28T22:09:09.441Z,5.08
2024-02-28T22:11:36.064Z,5.14
2024-02-28T22:14:03.537Z,5.13
2024-02-28T22:16:30.130Z,4.92
2024-02-28T22:18:56.782Z,5.01
2024-02-28T22:21:23.414Z,5.17
2024-02-28T22:23:50.044Z,5.32
2024-02-28T22:26:20.056Z,5.22
2024-02-28T22:28:46.901Z,4.90
2024-02-28T22:31:13.926Z,4.88
2024-02-28T22:33:40.971Z,4.84
2024-02-28T22:36:12.031Z,4.88
2024-02-28T22:38:39.116Z,4.78
2024-02-28T22:41:06.449Z,5.01
2024-02-28T22:43:34.566Z,4.91
2024-02-28T22:46:01.148Z,4.65
2024-02-28T22:48:27.849Z,4.63
2024-02-28T22:50:54.447Z,4.56
2024-02-28T22:53:21.123Z,4.78
2024-02-28T22:55:47.776Z,4.79
2024-02-28T22:58:14.397Z,4.92
2024-02-28T23:00:43.801Z,4.99
2024-02-28T23:03:10.694Z,4.85
2024-02-28T23:05:37.331Z,5.11
2024-02-28T23:08:04.129Z,4.94
2024-02-28T23:10:30.775Z,4.99
2024-02-28T23:12:57.910Z,4.98
2024-02-28T23:15:24.976Z,4.96
2024-02-28T23:17:57.159Z,4.92
2024-02-28T23:20:27.952Z,4.85
2024-02-28T23:22:55.675Z,4.62
2024-02-28T23:25:23.233Z,4.71
2024-02-28T23:27:52.067Z,4.31
2024-02-28T23:30:19.289Z,4.28
2024-02-28T23:32:46.198Z,4.27
2024-02-28T23:35:13.763Z,4.16
2024-02-28T23:37:41.098Z,4.29
2024-02-28T23:40:09.304Z,4.36
2024-02-28T23:42:36.651Z,4.17
2024-02-28T23:45:03.957Z,4.10
2024-02-28T23:47:30.579Z,4.27
2024-02-28T23:49:57.217Z,4.12
2024-02-28T23:52:23.997Z,4.09
2024-02-28T23:54:50.889Z,3.99
2024-02-28T23:57:17.455Z,4.50
2024-02-28T23:59:44.180Z,4.59
